sensor_id;sensor_type;location;lat;lon;timestamp;temperature;humidity
5394;DHT22;2720;52.396;10.064;2023-04-24T00:02:03;10.90;99.90
5394;DHT22;2720;52.396;10.064;2023-04-24T00:04:32;10.90;99.90
5394;DHT22;2720;52.396;10.064;2023-04-24T00:06:59;10.90;99.90
5394;DHT22;2720;52.396;10.064;2023-04-24T00:09:26;10.90;99.90
5394;DHT22;2720;52.396;10.064;2023-04-24T00:11:53;10.80;99.90
5394;DHT22;2720;52.396;10.064;2023-04-24T00:14:23;10.80;99.90
5394;DHT22;2720;52.396;10.064;2023-04-24T00:16:49;10.80;99.90
5394;DHT22;2720;52.396;10.064;2023-04-24T00:19:17;10.70;99.90
5394;DHT22;2720;52.396;10.064;2023-04-24T00:21:46;10.70;99.90
5394;DHT22;2720;52.396;10.064;2023-04-24T00:24:15;10.70;99.90
5394;DHT22;2720;52.396;10.064;2023-04-24T00:26:42;10.70;99.90
5394;DHT22;2720;52.396;10.064;2023-04-24T00:29:09;10.60;99.90
5394;DHT22;2720;52.396;10.064;2023-04-24T00:31:37;10.60;99.90
5394;DHT22;2720;52.396;10.064;2023-04-24T00:34:04;10.50;99.90
5394;DHT22;2720;52.396;10.064;2023-04-24T00:36:32;10.40;99.90
5394;DHT22;2720;52.396;10.064;2023-04-24T00:38:59;10.40;99.90
5394;DHT22;2720;52.396;10.064;2023-04-24T00:41:25;10.30;99.90
5394;DHT22;2720;52.396;10.064;2023-04-24T00:43:53;10.20;99.90
5394;DHT22;2720;52.396;10.064;2023-04-24T00:46:20;10.10;99.90
5394;DHT22;2720;52.396;10.064;2023-04-24T00:48:49;10.10;99.90
5394;DHT22;2720;52.396;10.064;2023-04-24T00:51:17;10.00;99.90
5394;DHT22;2720;52.396;10.064;2023-04-24T00:53:44;10.00;99.90
5394;DHT22;2720;52.396;10.064;2023-04-24T00:56:11;9.90;99.90
5394;DHT22;2720;52.396;10.064;2023-04-24T00:58:38;9.90;99.90
5394;DHT22;2720;52.396;10.064;2023-04-24T01:01:06;9.90;99.90
5394;DHT22;2720;52.396;10.064;2023-04-24T01:03:33;9.80;99.90
5394;DHT22;2720;52.396;10.064;2023-04-24T01:06:04;9.80;99.90
5394;DHT22;2720;52.396;10.064;2023-04-24T01:08:33;9.70;99.90
5394;DHT22;2720;52.396;10.064;2023-04-24T01:11:03;9.70;99.90
5394;DHT22;2720;52.396;10.064;2023-04-24T01:13:31;9.60;99.90
5394;DHT22;2720;52.396;10.064;2023-04-24T01:15:58;9.60;99.90
5394;DHT22;2720;52.396;10.064;2023-04-24T01:18:26;9.60;99.90
5394;DHT22;2720;52.396;10.064;2023-04-24T01:20:55;9.70;99.90
5394;DHT22;2720;52.396;10.064;2023-04-24T01:23:24;9.80;99.90
5394;DHT22;2720;52.396;10.064;2023-04-24T01:25:52;9.80;99.90
5394;DHT22;2720;52.396;10.064;2023-04-24T01:28:19;9.70;99.90
5394;DHT22;2720;52.396;10.064;2023-04-24T01:30:47;9.70;99.90
5394;DHT22;2720;52.396;10.064;2023-04-24T01:33:14;9.70;99.90
5394;DHT22;2720;52.396;10.064;2023-04-24T01:35:41;9.70;99.90
5394;DHT22;2720;52.396;10.064;2023-04-24T01:38:09;9.80;99.90
5394;DHT22;2720;52.396;10.064;2023-04-24T01:40:37;9.80;99.90
5394;DHT22;2720;52.396;10.064;2023-04-24T01:43:04;9.70;99.90
5394;DHT22;2720;52.396;10.064;2023-04-24T01:45:32;9.60;99.90
5394;DHT22;2720;52.396;10.064;2023-04-24T01:47:59;9.50;99.90
5394;DHT22;2720;52.396;10.064;2023-04-24T01:50:26;9.40;99.90
5394;DHT22;2720;52.396;10.064;2023-04-24T01:52:53;9.30;99.90
5394;DHT22;2720;52.396;10.064;2023-04-24T01:55:21;9.30;99.90
5394;DHT22;2720;52.396;10.064;2023-04-24T01:57:50;9.30;99.90
5394;DHT22;2720;52.396;10.064;2023-04-24T02:00:18;9.20;99.90
5394;DHT22;2720;52.396;10.064;2023-04-24T02:02:45;9.30;99.90
5394;DHT22;2720;52.396;10.064;2023-04-24T02:05:12;9.30;99.90
5394;DHT22;2720;52.396;10.064;2023-04-24T02:07:39;9.30;99.90
5394;DHT22;2720;52.396;10.064;2023-04-24T02:10:07;9.20;99.90
5394;DHT22;2720;52.396;10.064;2023-04-24T02:12:34;9.20;99.90
5394;DHT22;2720;52.396;10.064;2023-04-24T02:15:03;9.10;99.90
5394;DHT22;2720;52.396;10.064;2023-04-24T02:17:30;9.00;99.90
5394;DHT22;2720;52.396;10.064;2023-04-24T02:19:57;8.90;99.90
5394;DHT22;2720;52.396;10.064;2023-04-24T02:22:24;8.80;99.90
5394;DHT22;2720;52.396;10.064;2023-04-24T02:24:51;8.70;99.90
5394;DHT22;2720;52.396;10.064;2023-04-24T02:27:18;8.60;99.90
5394;DHT22;2720;52.396;10.064;2023-04-24T02:29:45;8.40;99.90
5394;DHT22;2720;52.396;10.064;2023-04-24T02:32:14;8.40;99.90
5394;DHT22;2720;52.396;10.064;2023-04-24T02:34:41;8.30;99.90
5394;DHT22;2720;52.396;10.064;2023-04-24T02:37:08;8.20;99.90
5394;DHT22;2720;52.396;10.064;2023-04-24T02:39:35;8.10;99.90
5394;DHT22;2720;52.396;10.064;2023-04-24T02:42:02;8.00;99.90
5394;DHT22;2720;52.396;10.064;2023-04-24T02:44:29;8.10;99.90
5394;DHT22;2720;52.396;10.064;2023-04-24T02:46:56;8.00;99.90
5394;DHT22;2720;52.396;10.064;2023-04-24T02:49:24;8.00;99.90
5394;DHT22;2720;52.396;10.064;2023-04-24T02:51:51;7.90;99.90
5394;DHT22;2720;52.396;10.064;2023-04-24T02:54:18;8.00;99.90
5394;DHT22;2720;52.396;10.064;2023-04-24T02:56:45;8.00;99.90
5394;DHT22;2720;52.396;10.064;2023-04-24T02:59:12;8.00;99.90
5394;DHT22;2720;52.396;10.064;2023-04-24T03:01:39;8.00;99.90
5394;DHT22;2720;52.396;10.064;2023-04-24T03:04:06;8.10;99.90
5394;DHT22;2720;52.396;10.064;2023-04-24T03:06:34;8.10;99.90
5394;DHT22;2720;52.396;10.064;2023-04-24T03:09:02;8.20;99.90
5394;DHT22;2720;52.396;10.064;2023-04-24T03:11:29;8.20;99.90
5394;DHT22;2720;52.396;10.064;2023-04-24T03:13:56;8.20;99.90
5394;DHT22;2720;52.396;10.064;2023-04-24T03:16:23;8.20;99.90
5394;DHT22;2720;52.396;10.064;2023-04-24T03:18:50;8.20;99.90
5394;DHT22;2720;52.396;10.064;2023-04-24T03:21:16;8.20;99.90
5394;DHT22;2720;52.396;10.064;2023-04-24T03:23:45;8.10;99.90
5394;DHT22;2720;52.396;10.064;2023-04-24T03:26:12;8.10;99.90
5394;DHT22;2720;52.396;10.064;2023-04-24T03:28:39;8.00;99.90
5394;DHT22;2720;52.396;10.064;2023-04-24T03:31:06;8.00;99.90
5394;DHT22;2720;52.396;10.064;2023-04-24T03:33:33;7.90;99.90
5394;DHT22;2720;52.396;10.064;2023-04-24T03:36:01;7.90;99.90
5394;DHT22;2720;52.396;10.064;2023-04-24T03:38:28;7.90;99.90
5394;DHT22;2720;52.396;10.064;2023-04-24T03:40:56;7.80;99.90
5394;DHT22;2720;52.396;10.064;2023-04-24T03:43:23;7.80;99.90
5394;DHT22;2720;52.396;10.064;2023-04-24T03:45:50;7.70;99.90
5394;DHT22;2720;52.396;10.064;2023-04-24T03:48:17;7.60;99.90
5394;DHT22;2720;52.396;10.064;2023-04-24T03:50:44;7.60;99.90
5394;DHT22;2720;52.396;10.064;2023-04-24T03:53:11;7.40;99.90
5394;DHT22;2720;52.396;10.064;2023-04-24T03:55:38;7.30;99.90
5394;DHT22;2720;52.396;10.064;2023-04-24T03:58:07;7.30;99.90
5394;DHT22;2720;52.396;10.064;2023-04-24T04:00:34;7.30;99.90
5394;DHT22;2720;52.396;10.064;2023-04-24T04:03:03;7.30;99.90
5394;DHT22;2720;52.396;10.064;2023-04-24T04:05:30;7.20;99.90
5394;DHT22;2720;52.396;10.064;2023-04-24T04:07:57;7.20;99.90
5394;DHT22;2720;52.396;10.064;2023-04-24T04:10:24;7.30;99.90
5394;DHT22;2720;52.396;10.064;2023-04-24T04:12:50;7.40;99.90
5394;DHT22;2720;52.396;10.064;2023-04-24T04:15:19;7.40;99.90
5394;DHT22;2720;52.396;10.064;2023-04-24T04:17:46;7.30;99.90
5394;DHT22;2720;52.396;10.064;2023-04-24T04:20:13;7.30;99.90
5394;DHT22;2720;52.396;10.064;2023-04-24T04:22:41;7.30;99.90
5394;DHT22;2720;52.396;10.064;2023-04-24T04:25:08;7.30;99.90
5394;DHT22;2720;52.396;10.064;2023-04-24T04:27:35;7.20;99.90
5394;DHT22;2720;52.396;10.064;2023-04-24T04:30:03;7.20;99.90
5394;DHT22;2720;52.396;10.064;2023-04-24T04:32:32;7.20;99.90
5394;DHT22;2720;52.396;10.064;2023-04-24T04:35:00;7.30;99.90
5394;DHT22;2720;52.396;10.064;2023-04-24T04:37:28;7.30;99.90
5394;DHT22;2720;52.396;10.064;2023-04-24T04:39:55;7.40;99.90
5394;DHT22;2720;52.396;10.064;2023-04-24T04:42:23;7.40;99.90
5394;DHT22;2720;52.396;10.064;2023-04-24T04:44:50;7.40;99.90
5394;DHT22;2720;52.396;10.064;2023-04-24T04:47:17;7.50;99.90
5394;DHT22;2720;52.396;10.064;2023-04-24T04:49:46;7.50;99.90
5394;DHT22;2720;52.396;10.064;2023-04-24T04:52:13;7.60;99.90
5394;DHT22;2720;52.396;10.064;2023-04-24T04:54:42;7.60;99.90
5394;DHT22;2720;52.396;10.064;2023-04-24T04:57:09;7.70;99.90
5394;DHT22;2720;52.396;10.064;2023-04-24T04:59:37;7.80;99.90
5394;DHT22;2720;52.396;10.064;2023-04-24T05:02:04;7.80;99.90
5394;DHT22;2720;52.396;10.064;2023-04-24T05:04:31;7.80;99.90
5394;DHT22;2720;52.396;10.064;2023-04-24T05:07:00;7.90;99.90
5394;DHT22;2720;52.396;10.064;2023-04-24T05:09:27;8.00;99.90
5394;DHT22;2720;52.396;10.064;2023-04-24T05:11:55;8.00;99.90
5394;DHT22;2720;52.396;10.064;2023-04-24T05:14:22;8.20;99.90
5394;DHT22;2720;52.396;10.064;2023-04-24T05:16:49;8.30;99.90
5394;DHT22;2720;52.396;10.064;2023-04-24T05:19:16;8.50;99.90
5394;DHT22;2720;52.396;10.064;2023-04-24T05:21:43;8.70;99.90
5394;DHT22;2720;52.396;10.064;2023-04-24T05:24:12;8.90;99.90
5394;DHT22;2720;52.396;10.064;2023-04-24T05:26:39;9.20;99.90
5394;DHT22;2720;52.396;10.064;2023-04-24T05:29:06;9.40;99.90
5394;DHT22;2720;52.396;10.064;2023-04-24T05:31:33;9.50;99.90
5394;DHT22;2720;52.396;10.064;2023-04-24T05:33:59;9.70;99.90
5394;DHT22;2720;52.396;10.064;2023-04-24T05:36:26;9.90;99.90
5394;DHT22;2720;52.396;10.064;2023-04-24T05:38:53;10.10;99.90
5394;DHT22;2720;52.396;10.064;2023-04-24T05:41:22;10.30;99.90
5394;DHT22;2720;52.396;10.064;2023-04-24T05:43:49;10.40;99.90
5394;DHT22;2720;52.396;10.064;2023-04-24T05:46:16;10.50;99.90
5394;DHT22;2720;52.396;10.064;2023-04-24T05:48:43;10.50;99.90
5394;DHT22;2720;52.396;10.064;2023-04-24T05:51:10;10.50;99.90
5394;DHT22;2720;52.396;10.064;2023-04-24T05:53:37;10.40;99.90
5394;DHT22;2720;52.396;10.064;2023-04-24T05:56:05;10.30;99.90
5394;DHT22;2720;52.396;10.064;2023-04-24T05:58:33;10.10;99.90
5394;DHT22;2720;52.396;10.064;2023-04-24T06:01:00;9.90;99.90
5394;DHT22;2720;52.396;10.064;2023-04-24T06:03:28;9.80;99.90
5394;DHT22;2720;52.396;10.064;2023-04-24T06:05:55;9.70;99.90
5394;DHT22;2720;52.396;10.064;2023-04-24T06:08:21;9.70;99.90
5394;DHT22;2720;52.396;10.064;2023-04-24T06:10:48;9.70;99.90
5394;DHT22;2720;52.396;10.064;2023-04-24T06:13:15;9.50;99.90
5394;DHT22;2720;52.396;10.064;2023-04-24T06:15:44;9.60;99.90
5394;DHT22;2720;52.396;10.064;2023-04-24T06:18:11;9.70;99.90
5394;DHT22;2720;52.396;10.064;2023-04-24T06:20:38;9.90;99.90
5394;DHT22;2720;52.396;10.064;2023-04-24T06:23:05;10.20;99.90
5394;DHT22;2720;52.396;10.064;2023-04-24T06:25:32;10.30;99.90
5394;DHT22;2720;52.396;10.064;2023-04-24T06:27:59;10.60;99.90
5394;DHT22;2720;52.396;10.064;2023-04-24T06:30:27;10.70;99.90
5394;DHT22;2720;52.396;10.064;2023-04-24T06:32:55;10.80;99.90
5394;DHT22;2720;52.396;10.064;2023-04-24T06:35:22;10.80;99.90
5394;DHT22;2720;52.396;10.064;2023-04-24T06:37:49;10.80;99.90
5394;DHT22;2720;52.396;10.064;2023-04-24T06:40:16;10.80;99.90
5394;DHT22;2720;52.396;10.064;2023-04-24T06:42:44;10.80;99.90
5394;DHT22;2720;52.396;10.064;2023-04-24T06:45:11;10.80;99.90
5394;DHT22;2720;52.396;10.064;2023-04-24T06:47:38;10.80;99.90
5394;DHT22;2720;52.396;10.064;2023-04-24T06:50:07;10.70;99.90
5394;DHT22;2720;52.396;10.064;2023-04-24T06:52:34;10.70;99.90
5394;DHT22;2720;52.396;10.064;2023-04-24T06:55:02;10.80;99.90
5394;DHT22;2720;52.396;10.064;2023-04-24T06:57:29;10.80;99.90
5394;DHT22;2720;52.396;10.064;2023-04-24T06:59:56;10.90;99.90
5394;DHT22;2720;52.396;10.064;2023-04-24T07:02:23;11.00;99.90
5394;DHT22;2720;52.396;10.064;2023-04-24T07:04:50;11.10;99.90
5394;DHT22;2720;52.396;10.064;2023-04-24T07:07:18;11.20;99.90
5394;DHT22;2720;52.396;10.064;2023-04-24T07:09:45;11.40;99.90
5394;DHT22;2720;52.396;10.064;2023-04-24T07:12:12;11.50;99.90
5394;DHT22;2720;52.396;10.064;2023-04-24T07:14:39;11.70;99.90
5394;DHT22;2720;52.396;10.064;2023-04-24T07:17:06;12.00;99.90
5394;DHT22;2720;52.396;10.064;2023-04-24T07:19:33;12.10;99.90
5394;DHT22;2720;52.396;10.064;2023-04-24T07:22:00;12.10;99.90
5394;DHT22;2720;52.396;10.064;2023-04-24T07:24:30;12.10;99.90
5394;DHT22;2720;52.396;10.064;2023-04-24T07:26:58;12.20;99.90
5394;DHT22;2720;52.396;10.064;2023-04-24T07:29:26;12.30;99.90
5394;DHT22;2720;52.396;10.064;2023-04-24T07:31:53;12.40;99.90
5394;DHT22;2720;52.396;10.064;2023-04-24T07:34:22;12.40;99.90
5394;DHT22;2720;52.396;10.064;2023-04-24T07:36:49;12.30;99.90
5394;DHT22;2720;52.396;10.064;2023-04-24T07:39:16;12.20;99.90
5394;DHT22;2720;52.396;10.064;2023-04-24T07:41:44;12.20;99.90
5394;DHT22;2720;52.396;10.064;2023-04-24T07:44:11;12.20;99.90
5394;DHT22;2720;52.396;10.064;2023-04-24T07:46:38;12.20;99.90
5394;DHT22;2720;52.396;10.064;2023-04-24T07:49:06;12.30;99.90
5394;DHT22;2720;52.396;10.064;2023-04-24T07:51:33;12.30;99.90
5394;DHT22;2720;52.396;10.064;2023-04-24T07:54:04;12.50;99.90
5394;DHT22;2720;52.396;10.064;2023-04-24T07:56:32;12.60;99.90
5394;DHT22;2720;52.396;10.064;2023-04-24T07:59:00;12.90;99.90
5394;DHT22;2720;52.396;10.064;2023-04-24T08:01:27;13.10;99.90
5394;DHT22;2720;52.396;10.064;2023-04-24T08:03:54;13.20;99.90
5394;DHT22;2720;52.396;10.064;2023-04-24T08:06:22;13.10;99.90
5394;DHT22;2720;52.396;10.064;2023-04-24T08:08:49;13.00;99.90
5394;DHT22;2720;52.396;10.064;2023-04-24T08:11:17;13.40;99.90
5394;DHT22;2720;52.396;10.064;2023-04-24T08:13:44;13.30;99.90
5394;DHT22;2720;52.396;10.064;2023-04-24T08:16:12;13.70;99.90
5394;DHT22;2720;52.396;10.064;2023-04-24T08:18:39;14.00;99.90
5394;DHT22;2720;52.396;10.064;2023-04-24T08:21:06;14.00;99.90
5394;DHT22;2720;52.396;10.064;2023-04-24T08:23:33;13.90;99.90
5394;DHT22;2720;52.396;10.064;2023-04-24T08:26:00;13.90;99.90
5394;DHT22;2720;52.396;10.064;2023-04-24T08:28:27;14.40;99.90
5394;DHT22;2720;52.396;10.064;2023-04-24T08:30:54;14.90;99.90
5394;DHT22;2720;52.396;10.064;2023-04-24T08:33:22;15.20;99.90
5394;DHT22;2720;52.396;10.064;2023-04-24T08:35:49;14.90;99.90
5394;DHT22;2720;52.396;10.064;2023-04-24T08:38:16;14.50;99.90
5394;DHT22;2720;52.396;10.064;2023-04-24T08:40:44;14.20;99.90
5394;DHT22;2720;52.396;10.064;2023-04-24T08:43:12;13.80;99.90
5394;DHT22;2720;52.396;10.064;2023-04-24T08:45:40;13.50;99.90
5394;DHT22;2720;52.396;10.064;2023-04-24T08:48:07;13.10;99.90
5394;DHT22;2720;52.396;10.064;2023-04-24T08:50:37;13.10;99.90
5394;DHT22;2720;52.396;10.064;2023-04-24T08:53:07;13.40;99.90
5394;DHT22;2720;52.396;10.064;2023-04-24T08:55:35;13.70;99.90
5394;DHT22;2720;52.396;10.064;2023-04-24T08:58:02;14.00;99.90
5394;DHT22;2720;52.396;10.064;2023-04-24T09:00:29;14.30;99.90
5394;DHT22;2720;52.396;10.064;2023-04-24T09:03:00;14.20;99.90
5394;DHT22;2720;52.396;10.064;2023-04-24T09:05:28;14.20;99.90
5394;DHT22;2720;52.396;10.064;2023-04-24T09:07:57;14.20;99.90
5394;DHT22;2720;52.396;10.064;2023-04-24T09:10:26;14.40;99.90
5394;DHT22;2720;52.396;10.064;2023-04-24T09:12:56;14.50;99.90
5394;DHT22;2720;52.396;10.064;2023-04-24T09:15:26;14.80;99.90
5394;DHT22;2720;52.396;10.064;2023-04-24T09:17:54;15.40;99.90
5394;DHT22;2720;52.396;10.064;2023-04-24T09:20:21;15.40;99.90
5394;DHT22;2720;52.396;10.064;2023-04-24T09:22:48;15.30;99.90
5394;DHT22;2720;52.396;10.064;2023-04-24T09:25:21;15.20;99.90
5394;DHT22;2720;52.396;10.064;2023-04-24T09:27:48;14.90;99.90
5394;DHT22;2720;52.396;10.064;2023-04-24T09:30:21;14.70;99.90
5394;DHT22;2720;52.396;10.064;2023-04-24T09:32:48;14.40;99.90
5394;DHT22;2720;52.396;10.064;2023-04-24T09:35:15;14.30;99.90
5394;DHT22;2720;52.396;10.064;2023-04-24T09:37:43;14.10;99.90
5394;DHT22;2720;52.396;10.064;2023-04-24T09:40:12;14.00;99.90
5394;DHT22;2720;52.396;10.064;2023-04-24T09:42:43;13.90;99.90
5394;DHT22;2720;52.396;10.064;2023-04-24T09:45:11;13.90;99.90
5394;DHT22;2720;52.396;10.064;2023-04-24T09:47:38;13.80;99.90
5394;DHT22;2720;52.396;10.064;2023-04-24T09:50:13;13.90;99.90
5394;DHT22;2720;52.396;10.064;2023-04-24T09:52:41;14.30;99.90
5394;DHT22;2720;52.396;10.064;2023-04-24T09:55:18;14.50;99.90
5394;DHT22;2720;52.396;10.064;2023-04-24T09:57:50;14.40;99.90
5394;DHT22;2720;52.396;10.064;2023-04-24T10:00:20;14.20;99.90
5394;DHT22;2720;52.396;10.064;2023-04-24T10:02:54;14.20;99.90
5394;DHT22;2720;52.396;10.064;2023-04-24T10:05:27;14.30;99.90
5394;DHT22;2720;52.396;10.064;2023-04-24T10:08:00;14.20;99.90
5394;DHT22;2720;52.396;10.064;2023-04-24T10:10:27;13.90;99.90
5394;DHT22;2720;52.396;10.064;2023-04-24T10:12:55;13.70;99.90
5394;DHT22;2720;52.396;10.064;2023-04-24T10:15:22;14.00;99.90
5394;DHT22;2720;52.396;10.064;2023-04-24T10:17:51;14.20;99.90
5394;DHT22;2720;52.396;10.064;2023-04-24T10:20:20;14.20;99.90
5394;DHT22;2720;52.396;10.064;2023-04-24T10:22:48;14.00;99.90
5394;DHT22;2720;52.396;10.064;2023-04-24T10:25:19;13.70;99.90
5394;DHT22;2720;52.396;10.064;2023-04-24T10:27:48;13.30;99.90
5394;DHT22;2720;52.396;10.064;2023-04-24T10:30:18;13.20;99.90
5394;DHT22;2720;52.396;10.064;2023-04-24T10:32:45;13.30;99.90
5394;DHT22;2720;52.396;10.064;2023-04-24T10:35:14;13.20;99.90
5394;DHT22;2720;52.396;10.064;2023-04-24T10:37:44;13.20;99.90
5394;DHT22;2720;52.396;10.064;2023-04-24T10:40:16;13.30;99.90
5394;DHT22;2720;52.396;10.064;2023-04-24T10:42:47;13.50;99.90
5394;DHT22;2720;52.396;10.064;2023-04-24T10:45:19;13.80;99.90
5394;DHT22;2720;52.396;10.064;2023-04-24T10:47:56;14.10;99.90
5394;DHT22;2720;52.396;10.064;2023-04-24T10:50:24;14.40;99.90
5394;DHT22;2720;52.396;10.064;2023-04-24T10:52:51;14.70;99.90
5394;DHT22;2720;52.396;10.064;2023-04-24T10:55:41;14.80;99.90
5394;DHT22;2720;52.396;10.064;2023-04-24T10:58:09;14.90;99.90
5394;DHT22;2720;52.396;10.064;2023-04-24T11:00:39;14.80;99.90
5394;DHT22;2720;52.396;10.064;2023-04-24T11:03:06;14.60;99.90
5394;DHT22;2720;52.396;10.064;2023-04-24T11:05:53;14.70;99.90
5394;DHT22;2720;52.396;10.064;2023-04-24T11:08:31;14.80;99.90
5394;DHT22;2720;52.396;10.064;2023-04-24T11:11:01;14.90;99.90
5394;DHT22;2720;52.396;10.064;2023-04-24T11:14:01;15.10;99.90
5394;DHT22;2720;52.396;10.064;2023-04-24T11:16:31;15.20;99.90
5394;DHT22;2720;52.396;10.064;2023-04-24T11:19:04;14.90;99.90
5394;DHT22;2720;52.396;10.064;2023-04-24T11:21:32;14.50;99.90
5394;DHT22;2720;52.396;10.064;2023-04-24T11:24:23;14.10;99.90
5394;DHT22;2720;52.396;10.064;2023-04-24T11:26:51;13.80;99.90
5394;DHT22;2720;52.396;10.064;2023-04-24T11:29:20;13.50;99.90
5394;DHT22;2720;52.396;10.064;2023-04-24T11:31:49;13.10;99.90
5394;DHT22;2720;52.396;10.064;2023-04-24T11:34:17;12.80;99.90
5394;DHT22;2720;52.396;10.064;2023-04-24T11:36:45;12.60;99.90
5394;DHT22;2720;52.396;10.064;2023-04-24T11:39:13;12.40;99.90
5394;DHT22;2720;52.396;10.064;2023-04-24T11:41:40;12.10;99.90
5394;DHT22;2720;52.396;10.064;2023-04-24T11:44:09;11.90;99.90
5394;DHT22;2720;52.396;10.064;2023-04-24T11:46:37;11.90;99.90
5394;DHT22;2720;52.396;10.064;2023-04-24T11:49:07;12.20;99.90
5394;DHT22;2720;52.396;10.064;2023-04-24T11:51:34;13.00;99.90
5394;DHT22;2720;52.396;10.064;2023-04-24T11:54:01;14.10;99.90
5394;DHT22;2720;52.396;10.064;2023-04-24T11:56:28;14.80;99.90
5394;DHT22;2720;52.396;10.064;2023-04-24T11:58:56;15.10;99.90
5394;DHT22;2720;52.396;10.064;2023-04-24T12:01:23;15.20;99.90
5394;DHT22;2720;52.396;10.064;2023-04-24T12:03:51;15.30;99.90
5394;DHT22;2720;52.396;10.064;2023-04-24T12:06:27;15.00;99.90
5394;DHT22;2720;52.396;10.064;2023-04-24T12:08:54;14.30;99.90
5394;DHT22;2720;52.396;10.064;2023-04-24T12:11:23;14.00;99.90
5394;DHT22;2720;52.396;10.064;2023-04-24T12:13:51;13.60;99.90
5394;DHT22;2720;52.396;10.064;2023-04-24T12:16:18;13.50;99.90
5394;DHT22;2720;52.396;10.064;2023-04-24T12:18:45;13.50;99.90
5394;DHT22;2720;52.396;10.064;2023-04-24T12:21:17;13.80;99.90
5394;DHT22;2720;52.396;10.064;2023-04-24T12:23:45;14.30;99.90
5394;DHT22;2720;52.396;10.064;2023-04-24T12:26:15;14.60;99.90
5394;DHT22;2720;52.396;10.064;2023-04-24T12:28:43;15.00;99.90
5394;DHT22;2720;52.396;10.064;2023-04-24T12:31:10;15.20;99.90
5394;DHT22;2720;52.396;10.064;2023-04-24T12:33:36;15.40;99.90
5394;DHT22;2720;52.396;10.064;2023-04-24T12:36:04;15.70;99.90
5394;DHT22;2720;52.396;10.064;2023-04-24T12:38:32;15.70;99.90
5394;DHT22;2720;52.396;10.064;2023-04-24T12:41:08;15.30;99.90
5394;DHT22;2720;52.396;10.064;2023-04-24T12:43:36;14.70;99.90
5394;DHT22;2720;52.396;10.064;2023-04-24T12:46:03;14.30;99.90
5394;DHT22;2720;52.396;10.064;2023-04-24T12:48:30;14.10;99.90
5394;DHT22;2720;52.396;10.064;2023-04-24T12:50:58;13.80;99.90
5394;DHT22;2720;52.396;10.064;2023-04-24T12:53:27;13.60;99.90
5394;DHT22;2720;52.396;10.064;2023-04-24T12:55:55;13.30;99.90
5394;DHT22;2720;52.396;10.064;2023-04-24T12:58:23;13.00;99.90
5394;DHT22;2720;52.396;10.064;2023-04-24T13:00:50;12.80;99.90
5394;DHT22;2720;52.396;10.064;2023-04-24T13:03:18;12.70;99.90
5394;DHT22;2720;52.396;10.064;2023-04-24T13:05:45;12.80;99.90
5394;DHT22;2720;52.396;10.064;2023-04-24T13:08:12;12.90;99.90
5394;DHT22;2720;52.396;10.064;2023-04-24T13:10:39;13.30;99.90
5394;DHT22;2720;52.396;10.064;2023-04-24T13:13:07;13.70;99.90
5394;DHT22;2720;52.396;10.064;2023-04-24T13:15:35;14.10;99.90
5394;DHT22;2720;52.396;10.064;2023-04-24T13:18:02;14.50;99.90
5394;DHT22;2720;52.396;10.064;2023-04-24T13:20:29;14.80;99.90
5394;DHT22;2720;52.396;10.064;2023-04-24T13:22:56;14.70;99.90
5394;DHT22;2720;52.396;10.064;2023-04-24T13:25:23;14.40;99.90
5394;DHT22;2720;52.396;10.064;2023-04-24T13:27:50;13.90;99.90
5394;DHT22;2720;52.396;10.064;2023-04-24T13:30:17;13.40;99.90
5394;DHT22;2720;52.396;10.064;2023-04-24T13:32:46;12.80;99.90
5394;DHT22;2720;52.396;10.064;2023-04-24T13:35:13;12.40;99.90
5394;DHT22;2720;52.396;10.064;2023-04-24T13:37:40;12.10;99.90
5394;DHT22;2720;52.396;10.064;2023-04-24T13:40:08;11.80;99.90
5394;DHT22;2720;52.396;10.064;2023-04-24T13:42:35;11.50;99.90
5394;DHT22;2720;52.396;10.064;2023-04-24T13:45:02;11.30;99.90
5394;DHT22;2720;52.396;10.064;2023-04-24T13:47:30;11.30;99.90
5394;DHT22;2720;52.396;10.064;2023-04-24T13:49:58;11.20;99.90
5394;DHT22;2720;52.396;10.064;2023-04-24T13:52:25;11.30;99.90
5394;DHT22;2720;52.396;10.064;2023-04-24T13:54:52;11.50;99.90
5394;DHT22;2720;52.396;10.064;2023-04-24T13:57:20;11.80;99.90
5394;DHT22;2720;52.396;10.064;2023-04-24T13:59:47;11.80;99.90
5394;DHT22;2720;52.396;10.064;2023-04-24T14:02:14;11.60;99.90
5394;DHT22;2720;52.396;10.064;2023-04-24T14:04:41;10.50;99.90
5394;DHT22;2720;52.396;10.064;2023-04-24T14:07:09;11.30;99.90
5394;DHT22;2720;52.396;10.064;2023-04-24T14:09:36;11.20;99.90
5394;DHT22;2720;52.396;10.064;2023-04-24T14:12:04;11.10;99.90
5394;DHT22;2720;52.396;10.064;2023-04-24T14:14:32;10.90;99.90
5394;DHT22;2720;52.396;10.064;2023-04-24T14:16:59;10.70;99.90
5394;DHT22;2720;52.396;10.064;2023-04-24T14:19:26;10.60;99.90
5394;DHT22;2720;52.396;10.064;2023-04-24T14:21:53;10.70;99.90
5394;DHT22;2720;52.396;10.064;2023-04-24T14:24:23;10.40;99.90
5394;DHT22;2720;52.396;10.064;2023-04-24T14:26:51;10.10;99.90
5394;DHT22;2720;52.396;10.064;2023-04-24T14:29:18;10.00;99.90
5394;DHT22;2720;52.396;10.064;2023-04-24T14:31:45;9.90;99.90
5394;DHT22;2720;52.396;10.064;2023-04-24T14:34:13;9.90;99.90
5394;DHT22;2720;52.396;10.064;2023-04-24T14:36:40;10.00;99.90
5394;DHT22;2720;52.396;10.064;2023-04-24T14:39:08;10.10;99.90
5394;DHT22;2720;52.396;10.064;2023-04-24T14:41:37;10.20;99.90
5394;DHT22;2720;52.396;10.064;2023-04-24T14:44:04;10.30;99.90
5394;DHT22;2720;52.396;10.064;2023-04-24T14:46:31;10.30;99.90
5394;DHT22;2720;52.396;10.064;2023-04-24T14:48:59;10.40;99.90
5394;DHT22;2720;52.396;10.064;2023-04-24T14:51:26;10.30;99.90
5394;DHT22;2720;52.396;10.064;2023-04-24T14:53:53;10.20;99.90
5394;DHT22;2720;52.396;10.064;2023-04-24T14:56:19;10.10;99.90
5394;DHT22;2720;52.396;10.064;2023-04-24T14:58:48;9.90;99.90
5394;DHT22;2720;52.396;10.064;2023-04-24T15:01:15;9.80;99.90
5394;DHT22;2720;52.396;10.064;2023-04-24T15:03:43;9.80;99.90
5394;DHT22;2720;52.396;10.064;2023-04-24T15:06:11;9.80;99.90
5394;DHT22;2720;52.396;10.064;2023-04-24T15:08:38;9.80;99.90
5394;DHT22;2720;52.396;10.064;2023-04-24T15:11:05;9.90;99.90
5394;DHT22;2720;52.396;10.064;2023-04-24T15:13:32;9.90;99.90
5394;DHT22;2720;52.396;10.064;2023-04-24T15:16:00;9.90;99.90
5394;DHT22;2720;52.396;10.064;2023-04-24T15:18:27;8.10;99.90
5394;DHT22;2720;52.396;10.064;2023-04-24T15:20:55;9.80;99.90
5394;DHT22;2720;52.396;10.064;2023-04-24T15:23:22;9.80;99.90
5394;DHT22;2720;52.396;10.064;2023-04-24T15:25:49;9.90;99.90
5394;DHT22;2720;52.396;10.064;2023-04-24T15:28:16;9.80;99.90
5394;DHT22;2720;52.396;10.064;2023-04-24T15:30:43;9.70;99.90
5394;DHT22;2720;52.396;10.064;2023-04-24T15:33:11;9.60;99.90
5394;DHT22;2720;52.396;10.064;2023-04-24T15:35:38;9.50;99.90
5394;DHT22;2720;52.396;10.064;2023-04-24T15:38:06;9.50;99.90
5394;DHT22;2720;52.396;10.064;2023-04-24T15:40:33;9.40;99.90
5394;DHT22;2720;52.396;10.064;2023-04-24T15:43:00;9.40;99.90
5394;DHT22;2720;52.396;10.064;2023-04-24T15:45:27;9.40;99.90
5394;DHT22;2720;52.396;10.064;2023-04-24T15:47:54;9.40;99.90
5394;DHT22;2720;52.396;10.064;2023-04-24T15:50:23;9.50;99.90
5394;DHT22;2720;52.396;10.064;2023-04-24T15:52:50;9.60;99.90
5394;DHT22;2720;52.396;10.064;2023-04-24T15:55:17;9.80;99.90
5394;DHT22;2720;52.396;10.064;2023-04-24T15:57:44;9.90;99.90